Time;durP1;ratioP1;P1;durP2;ratioP2;P2;SDS_P1;SDS_P2;PMS_P1;PMS_P2;Temp;Humidity;BMP_temperature;BMP_pressure;BME280_temperature;BME280_humidity;BME280_pressure;Samples;Min_cycle;Max_cycle;Signal;HPM_P1;HPM_P2
2022/12/15 00:40:16;;;;;;;7.07;4.03;;;-3.00;79.40;;;;;;5115756;28;20458;-74
2022/12/15 00:42:41;;;;;;;6.25;2.92;;;-2.90;79.60;;;;;;5097712;28;20032;-75
2022/12/15 00:45:07;;;;;;;16.88;7.13;;;-2.90;79.30;;;;;;5115501;28;20024;-75
2022/12/15 00:47:33;;;;;;;4.72;3.20;;;-2.90;80.10;;;;;;5115460;28;20031;-75
2022/12/15 01:20:19;;;;;;;16.30;6.85;;;-2.60;77.90;;;;;;5114313;28;20042;-75
2022/12/15 01:22:49;;;;;;;12.38;6.18;;;-2.60;77.90;;;;;;5114739;28;20024;-75
2022/12/15 01:25:17;;;;;;;13.35;6.15;;;-2.60;78.10;;;;;;5113815;28;20044;-75
2022/12/15 01:27:43;;;;;;;17.48;7.35;;;-2.60;78.40;;;;;;5114787;28;20035;-75
2022/12/15 01:30:12;;;;;;;13.75;6.03;;;-2.60;78.20;;;;;;5113667;28;20390;-75
2022/12/15 01:32:37;;;;;;;16.88;6.88;;;-2.60;78.10;;;;;;5114552;28;20487;-75
2022/12/15 01:35:04;;;;;;;14.48;6.82;;;-2.50;77.90;;;;;;5114531;28;20016;-75
2022/12/15 01:37:30;;;;;;;11.57;6.28;;;-2.50;77.60;;;;;;5114446;28;20024;-75
2022/12/15 01:42:40;;;;;;;14.27;5.88;;;-2.50;77.60;;;;;;5113739;28;20062;-75
2022/12/15 01:45:28;;;;;;;12.77;6.03;;;-2.50;78.30;;;;;;5113304;28;20020;-75
2022/12/15 01:48:06;;;;;;;12.52;6.07;;;-2.60;77.20;;;;;;5114466;28;20024;-75
2022/12/15 01:50:36;;;;;;;15.23;6.07;;;-2.70;77.60;;;;;;5113259;28;20054;-75
2022/12/15 01:53:02;;;;;;;12.40;5.70;;;-2.60;78.90;;;;;;5113190;28;20032;-75
2022/12/15 01:55:29;;;;;;;14.98;6.13;;;-2.60;77.70;;;;;;5113152;28;20413;-75
2022/12/15 01:58:01;;;;;;;10.65;6.07;;;-2.70;77.40;;;;;;5114086;28;20043;-75
2022/12/15 02:00:28;;;;;;;18.60;6.88;;;-2.80;77.20;;;;;;5114142;28;20084;-75
2022/12/15 02:02:55;;;;;;;14.05;5.82;;;-2.80;77.50;;;;;;5113968;28;20058;-75
2022/12/15 02:05:21;;;;;;;17.67;6.82;;;-2.80;77.80;;;;;;5114002;28;20031;-75
2022/12/15 02:07:46;;;;;;;16.50;7.60;;;-2.70;78.50;;;;;;5113896;28;20054;-75
2022/12/15 02:10:12;;;;;;;20.95;7.20;;;-2.70;78.60;;;;;;5095996;28;20024;-75
2022/12/15 02:12:56;;;;;;;12.38;6.68;;;-2.60;78.60;;;;;;5113092;28;20028;-75
2022/12/15 02:15:44;;;;;;;15.35;8.00;;;-2.50;78.60;;;;;;5114041;28;20121;-75
2022/12/15 02:18:31;;;;;;;19.95;8.23;;;-2.50;78.50;;;;;;5113988;28;20079;-75
2022/12/15 02:20:59;;;;;;;13.38;6.63;;;-2.50;78.30;;;;;;5113814;28;20058;-75
2022/12/15 02:23:43;;;;;;;12.63;5.88;;;-2.50;78.30;;;;;;5112713;28;20024;-75
2022/12/15 02:26:46;;;;;;;12.93;6.57;;;-2.60;78.00;;;;;;5113767;28;20020;-75
2022/12/15 02:29:30;;;;;;;;;;;-2.60;77.90;;;;;;5113101;28;20024;-75
2022/12/15 02:32:00;;;;;;;11.02;5.55;;;-2.50;77.90;;;;;;5113795;28;19911;-75
2022/12/15 02:34:35;;;;;;;12.07;6.35;;;-2.60;77.80;;;;;;5113700;28;20075;-75
2022/12/15 02:37:15;;;;;;;10.80;5.38;;;-2.60;77.80;;;;;;5112615;28;20027;-75
2022/12/15 02:39:41;;;;;;;17.73;7.88;;;-2.60;77.80;;;;;;5112622;28;20463;-75
2022/12/15 02:42:11;;;;;;;12.55;5.10;;;-2.70;77.90;;;;;;5112780;28;20028;-75
2022/12/15 02:44:38;;;;;;;13.07;5.90;;;-2.70;78.10;;;;;;5112777;28;20020;-75
2022/12/15 02:47:16;;;;;;;12.52;5.78;;;-2.70;78.40;;;;;;5113485;28;20028;-75
2022/12/15 02:50:08;;;;;;;15.93;6.72;;;-2.70;78.70;;;;;;5113651;28;20032;-75
2022/12/15 02:52:55;;;;;;;16.40;5.65;;;-2.70;78.60;;;;;;5114029;28;20390;-75
2022/12/15 02:55:41;;;;;;;16.08;7.50;;;-2.70;78.60;;;;;;5117325;28;20052;-75
2022/12/15 02:58:13;;;;;;;17.58;7.90;;;-2.70;78.70;;;;;;5075951;28;20056;-75
2022/12/15 03:00:44;;;;;;;12.80;5.22;;;-2.70;78.80;;;;;;5117705;28;20028;-75
2022/12/15 03:03:12;;;;;;;14.52;6.65;;;-2.70;78.70;;;;;;5117520;28;20027;-75
2022/12/15 03:05:38;;;;;;;13.40;7.05;;;-2.80;78.50;;;;;;5116401;28;20020;-75
2022/12/15 03:08:04;;;;;;;19.85;7.13;;;-2.80;78.40;;;;;;5116483;28;20048;-75
2022/12/15 03:10:29;;;;;;;17.33;7.35;;;-2.80;78.70;;;;;;5116510;28;20079;-74
2022/12/15 03:12:55;;;;;;;13.43;6.05;;;-2.80;78.70;;;;;;5116447;28;20111;-75
2022/12/15 03:15:20;;;;;;;14.52;6.90;;;-2.80;78.60;;;;;;5116419;28;20020;-75
2022/12/15 03:17:46;;;;;;;11.18;4.97;;;-2.80;78.50;;;;;;5116341;28;20378;-75
2022/12/15 03:20:12;;;;;;;14.18;5.25;;;-2.90;79.30;;;;;;5099309;28;20039;-75
2022/12/15 03:22:39;;;;;;;11.90;5.22;;;-2.90;78.60;;;;;;5117049;28;20036;-75
2022/12/15 03:25:05;;;;;;;16.00;6.97;;;-3.00;78.70;;;;;;5117069;28;20030;-75
2022/12/15 03:27:30;;;;;;;12.02;5.30;;;-3.00;78.80;;;;;;5099193;28;20457;-75
2022/12/15 03:29:56;;;;;;;11.00;6.15;;;-3.00;78.90;;;;;;5116108;28;20051;-75
2022/12/15 03:32:22;;;;;;;9.85;4.90;;;-3.10;79.20;;;;;;5115887;28;20095;-75
2022/12/15 03:34:47;;;;;;;21.45;7.40;;;-3.10;79.40;;;;;;5116920;28;20069;-75
2022/12/15 03:37:13;;;;;;;15.98;8.07;;;-3.10;79.50;;;;;;5116850;28;20028;-75
2022/12/15 03:39:39;;;;;;;10.90;6.00;;;-3.00;79.60;;;;;;5116064;28;20057;-74
2022/12/15 03:42:04;;;;;;;9.88;4.97;;;-3.10;79.50;;;;;;5116770;28;20028;-75
2022/12/15 03:44:30;;;;;;;10.35;5.70;;;-3.10;79.40;;;;;;5116648;28;20036;-74
2022/12/15 03:46:55;;;;;;;11.73;6.32;;;-3.10;79.40;;;;;;5116660;28;20051;-74
2022/12/15 03:49:21;;;;;;;15.68;6.03;;;-3.10;79.40;;;;;;5116659;28;20026;-75
2022/12/15 03:51:46;;;;;;;18.73;8.25;;;-3.10;79.40;;;;;;5115640;28;20448;-75
2022/12/15 03:54:12;;;;;;;13.85;7.00;;;-3.00;79.50;;;;;;5116533;28;20032;-74
2022/12/15 03:56:38;;;;;;;16.63;6.28;;;-3.00;79.70;;;;;;5116296;28;20039;-75
2022/12/15 03:59:04;;;;;;;17.27;7.15;;;-3.00;79.60;;;;;;5116439;28;20034;-75
2022/12/15 04:01:35;;;;;;;17.75;7.78;;;-3.00;79.70;;;;;;5098540;28;20051;-75
2022/12/15 04:04:01;;;;;;;10.50;6.05;;;-2.90;79.60;;;;;;5116144;28;20463;-75
2022/12/15 04:06:28;;;;;;;13.10;6.68;;;-2.90;80.20;;;;;;5115122;28;20036;-74
2022/12/15 04:08:53;;;;;;;16.05;6.32;;;-3.00;79.90;;;;;;5116195;28;20054;-75
2022/12/15 04:11:19;;;;;;;9.90;5.07;;;-3.00;79.20;;;;;;5115438;28;20051;-74
2022/12/15 04:13:44;;;;;;;14.77;5.82;;;-3.00;79.00;;;;;;5116136;28;20092;-74
2022/12/15 04:16:10;;;;;;;12.07;5.97;;;-3.10;79.00;;;;;;5098125;28;20028;-74
2022/12/15 04:18:36;;;;;;;9.82;5.53;;;-3.10;79.20;;;;;;5115170;28;20036;-75
2022/12/15 04:21:02;;;;;;;13.20;6.50;;;-3.20;79.00;;;;;;5115103;28;20036;-74
2022/12/15 04:23:28;;;;;;;16.33;7.78;;;-3.30;79.50;;;;;;5115886;28;20027;-74
2022/12/15 05:32:16;;;;;;;19.17;7.85;;;-3.50;80.10;;;;;;5114742;28;20031;-75
2022/12/15 05:34:42;;;;;;;16.35;6.95;;;-3.40;79.80;;;;;;5096610;28;20031;-74
2022/12/15 05:37:07;;;;;;;13.13;5.70;;;-3.40;79.60;;;;;;5096596;28;20032;-74
2022/12/15 05:39:33;;;;;;;12.70;5.70;;;-3.30;79.70;;;;;;5114476;28;20032;-75
2022/12/15 05:41:59;;;;;;;9.02;4.63;;;-3.30;79.50;;;;;;5114423;28;20039;-75
2022/12/15 05:44:25;;;;;;;15.20;6.85;;;-3.30;79.30;;;;;;5114302;28;20032;-75
2022/12/15 05:46:51;;;;;;;13.15;6.65;;;-3.40;79.40;;;;;;5113434;28;20052;-74
2022/12/15 05:49:17;;;;;;;15.50;6.45;;;-3.40;79.60;;;;;;5114309;28;20020;-74
2022/12/15 05:51:44;;;;;;;11.35;5.20;;;-3.50;79.60;;;;;;5113199;28;20035;-75
2022/12/15 05:54:14;;;;;;;14.27;6.68;;;-3.50;79.80;;;;;;5114218;28;20024;-75
2022/12/15 05:56:40;;;;;;;14.38;4.72;;;-3.60;79.90;;;;;;5112998;28;20044;-75
2022/12/15 05:59:05;;;;;;;10.48;5.50;;;-3.50;80.10;;;;;;5113008;28;20065;-75
2022/12/15 06:01:31;;;;;;;14.73;6.53;;;-3.60;80.00;;;;;;5096247;28;20028;-75
2022/12/15 06:03:58;;;;;;;7.80;5.25;;;-3.60;80.40;;;;;;5113990;28;20024;-75
2022/12/15 06:06:24;;;;;;;13.18;6.22;;;-3.70;80.60;;;;;;5112840;28;20028;-74
2022/12/15 06:08:50;;;;;;;18.58;9.07;;;-3.70;81.70;;;;;;5112773;28;20024;-75
2022/12/15 06:11:17;;;;;;;19.48;9.15;;;-3.70;81.30;;;;;;5112871;28;20063;-75
2022/12/15 06:13:44;;;;;;;13.60;8.15;;;-3.60;81.30;;;;;;5113774;28;20088;-75
2022/12/15 06:16:15;;;;;;;13.30;6.35;;;-3.60;81.10;;;;;;5112803;28;20028;-75
2022/12/15 06:18:43;;;;;;;19.42;7.78;;;-3.60;81.00;;;;;;5113771;28;20020;-74
2022/12/15 06:21:16;;;;;;;17.63;6.90;;;-3.60;80.80;;;;;;5113704;28;20020;-74
2022/12/15 06:23:43;;;;;;;8.70;5.88;;;-3.60;81.00;;;;;;5113650;28;20028;-74
2022/12/15 06:26:24;;;;;;;9.00;3.78;;;-3.60;81.30;;;;;;5112669;28;20028;-74
2022/12/15 06:28:51;;;;;;;3.50;2.83;;;-3.70;81.90;;;;;;5112803;28;20080;-75
2022/12/15 06:31:21;;;;;;;19.60;6.55;;;-3.70;82.10;;;;;;5113586;28;20020;-75
2022/12/15 06:33:47;;;;;;;23.02;8.43;;;-3.80;82.50;;;;;;5112593;28;20024;-75
2022/12/15 06:36:15;;;;;;;9.10;4.32;;;-3.80;82.70;;;;;;5113519;28;20020;-74
2022/12/15 06:38:44;;;;;;;9.63;5.90;;;-3.70;82.40;;;;;;5113562;28;20084;-75
2022/12/15 06:41:12;;;;;;;18.38;6.43;;;-3.70;82.50;;;;;;5112599;28;20047;-75
2022/12/15 06:43:38;;;;;;;7.50;4.95;;;-3.80;82.60;;;;;;5113356;28;20054;-75
2022/12/15 06:46:04;;;;;;;16.48;6.82;;;-3.80;82.50;;;;;;5113449;28;20024;-75
2022/12/15 06:48:30;;;;;;;10.57;5.68;;;-3.80;82.70;;;;;;5113323;28;20040;-75
2022/12/15 06:51:00;;;;;;;19.95;8.98;;;-3.80;83.00;;;;;;5112362;28;20058;-75
2022/12/15 06:53:26;;;;;;;21.75;10.85;;;-3.80;83.10;;;;;;5113420;28;20016;-75
2022/12/15 06:55:52;;;;;;;13.80;8.32;;;-3.70;83.00;;;;;;5112075;28;20060;-75
2022/12/15 06:58:17;;;;;;;18.35;7.72;;;-3.70;83.50;;;;;;5112397;28;20036;-75
2022/12/15 07:00:44;;;;;;;14.00;7.15;;;-3.70;82.40;;;;;;5112353;28;20039;-75
2022/12/15 07:03:14;;;;;;;28.95;9.07;;;-3.70;82.70;;;;;;5112177;28;20122;-75
2022/12/15 07:05:40;;;;;;;21.92;9.70;;;-3.70;82.80;;;;;;5113302;28;20020;-75
2022/12/15 07:08:07;;;;;;;15.68;7.50;;;-3.60;82.60;;;;;;5113138;28;20034;-75
2022/12/15 07:10:32;;;;;;;13.30;7.80;;;-3.60;82.20;;;;;;5112035;28;20028;-74
2022/12/15 07:12:58;;;;;;;11.93;6.60;;;-3.60;81.50;;;;;;5112204;28;20071;-74
2022/12/15 07:15:24;;;;;;;22.52;7.45;;;-3.60;81.80;;;;;;5112219;28;20028;-75
2022/12/15 07:17:54;;;;;;;19.20;8.90;;;-3.60;82.20;;;;;;5112184;28;20052;-75
2022/12/15 07:20:20;;;;;;;18.77;8.32;;;-3.60;82.30;;;;;;5112060;28;20028;-75
2022/12/15 07:22:52;;;;;;;18.00;8.48;;;-3.60;82.10;;;;;;5112943;28;20020;-75
2022/12/15 07:25:18;;;;;;;17.65;8.27;;;-3.50;82.10;;;;;;5113279;28;20016;-74
2022/12/15 07:27:45;;;;;;;21.58;8.20;;;-3.50;82.00;;;;;;5112073;28;20024;-74
2022/12/15 07:30:12;;;;;;;19.70;8.18;;;-3.50;82.90;;;;;;5111986;28;20463;-75
2022/12/15 07:32:38;;;;;;;15.73;7.85;;;-3.50;81.40;;;;;;5111981;28;20085;-75
2022/12/15 07:35:04;;;;;;;11.35;5.50;;;-3.50;81.60;;;;;;5112944;28;20024;-75
2022/12/15 07:37:30;;;;;;;13.18;6.70;;;-3.60;82.10;;;;;;5112945;28;20029;-75
2022/12/15 07:39:56;;;;;;;10.82;5.72;;;-3.60;82.10;;;;;;5115525;28;20028;-75
2022/12/15 07:42:22;;;;;;;11.25;4.78;;;-3.60;82.30;;;;;;5116628;28;20024;-75
2022/12/15 07:44:47;;;;;;;11.07;4.43;;;-3.70;82.90;;;;;;5115549;28;20024;-75
2022/12/15 07:47:13;;;;;;;15.88;7.85;;;-3.80;83.20;;;;;;5116598;28;20025;-75
2022/12/15 07:49:39;;;;;;;22.17;8.63;;;-3.80;83.40;;;;;;5116542;28;20039;-75
2022/12/15 07:52:05;;;;;;;14.65;7.45;;;-3.80;83.40;;;;;;5115478;28;20020;-75
2022/12/15 07:54:31;;;;;;;17.00;9.02;;;-3.70;83.30;;;;;;5115614;28;20028;-74
2022/12/15 07:56:58;;;;;;;17.65;7.97;;;-3.60;83.00;;;;;;5115251;28;20058;-74
2022/12/15 07:59:24;;;;;;;21.23;9.50;;;-3.60;82.80;;;;;;5115398;28;20053;-75
2022/12/15 08:01:51;;;;;;;28.75;9.90;;;-3.50;83.30;;;;;;5115546;28;20032;-75
2022/12/15 08:04:17;;;;;;;23.27;9.18;;;-3.50;82.40;;;;;;5116293;28;20087;-75
2022/12/15 08:06:43;;;;;;;19.38;9.13;;;-3.50;82.30;;;;;;5116237;28;20048;-74
2022/12/15 08:09:09;;;;;;;18.08;7.78;;;-3.40;82.10;;;;;;5115013;28;20024;-75
2022/12/15 08:11:35;;;;;;;20.88;8.43;;;-3.30;82.00;;;;;;5115139;28;20024;-74
2022/12/15 08:14:01;;;;;;;24.17;9.23;;;-3.40;81.60;;;;;;5115085;28;20027;-75
2022/12/15 08:16:27;;;;;;;16.08;8.63;;;-3.30;81.80;;;;;;5098005;28;20032;-75
2022/12/15 08:18:55;;;;;;;24.27;9.52;;;-3.30;82.10;;;;;;5116021;28;20140;-75
2022/12/15 08:21:21;;;;;;;20.33;8.93;;;-3.30;81.90;;;;;;5114923;28;20107;-75
2022/12/15 08:23:48;;;;;;;18.27;9.90;;;-3.20;81.90;;;;;;5114872;28;20028;-75
2022/12/15 08:26:16;;;;;;;22.63;10.50;;;-3.20;82.00;;;;;;5115866;28;20039;-74
2022/12/15 08:28:42;;;;;;;20.17;7.85;;;-3.10;81.80;;;;;;5114844;28;20021;-75
2022/12/15 08:31:13;;;;;;;25.55;9.77;;;-3.10;81.50;;;;;;5115814;28;20020;-75
2022/12/15 08:33:39;;;;;;;22.02;9.60;;;-3.10;81.30;;;;;;5115817;28;20031;-74
2022/12/15 08:36:07;;;;;;;17.23;8.13;;;-3.10;81.70;;;;;;5114669;28;20034;-75
2022/12/15 08:38:37;;;;;;;19.98;9.70;;;-2.90;81.80;;;;;;5114588;28;20040;-75
2022/12/15 08:41:25;;;;;;;27.92;9.95;;;-2.70;82.20;;;;;;5114769;28;20020;-75
2022/12/15 08:43:51;;;;;;;22.48;10.88;;;-2.60;81.00;;;;;;5115526;28;20027;-75
2022/12/15 08:46:24;;;;;;;26.83;10.52;;;-2.50;80.70;;;;;;5115502;28;20026;-75
2022/12/15 08:48:54;;;;;;;27.70;11.18;;;-1.90;80.90;;;;;;5114535;28;20016;-75
2022/12/15 08:51:21;;;;;;;27.67;11.63;;;-1.50;80.10;;;;;;5113394;28;20055;-75
2022/12/15 08:53:47;;;;;;;24.38;9.18;;;-1.30;78.30;;;;;;5115416;28;20024;-75
2022/12/15 08:56:16;;;;;;;27.02;11.07;;;-1.30;78.40;;;;;;5115131;28;20056;-75
2022/12/15 08:58:42;;;;;;;27.45;11.65;;;-1.30;78.20;;;;;;5115256;28;20035;-75
2022/12/15 09:01:17;;;;;;;23.45;9.95;;;-1.30;77.80;;;;;;5114230;28;20050;-75
2022/12/15 09:03:43;;;;;;;22.95;10.70;;;-1.50;77.70;;;;;;5114069;28;20031;-75
2022/12/15 09:06:15;;;;;;;22.52;9.65;;;-1.60;78.10;;;;;;5115111;28;20078;-75
2022/12/15 09:08:40;;;;;;;21.02;10.20;;;-1.60;78.50;;;;;;5115178;28;20016;-75
2022/12/15 09:11:06;;;;;;;16.13;6.53;;;-1.70;78.60;;;;;;5114016;28;20034;-75
2022/12/15 09:13:32;;;;;;;19.58;10.18;;;-1.70;79.10;;;;;;5113905;28;20028;-75
2022/12/15 09:16:06;;;;;;;24.25;11.45;;;-1.70;79.60;;;;;;5115044;28;20052;-75
2022/12/15 09:18:33;;;;;;;28.20;8.55;;;-1.10;79.80;;;;;;5114909;28;20035;-75
2022/12/15 09:21:03;;;;;;;29.98;12.48;;;0.00;78.60;;;;;;5114795;28;20028;-75
2022/12/15 09:23:29;;;;;;;25.05;12.40;;;1.00;74.80;;;;;;5114652;28;20055;-75
2022/12/15 09:25:59;;;;;;;33.80;13.77;;;1.90;71.00;;;;;;5114711;28;20016;-75
2022/12/15 09:28:25;;;;;;;34.70;15.63;;;2.70;69.10;;;;;;5114672;28;20035;-75
2022/12/15 09:30:51;;;;;;;31.05;14.70;;;3.40;67.00;;;;;;5114802;28;20054;-74
2022/12/15 09:33:16;;;;;;;36.05;16.13;;;4.20;65.50;;;;;;5114572;28;20039;-74
2022/12/15 09:35:49;;;;;;;29.98;15.20;;;4.70;62.30;;;;;;5114555;28;20109;-74
2022/12/15 09:38:15;;;;;;;30.27;15.07;;;5.10;60.70;;;;;;5113521;28;20027;-75
2022/12/15 09:40:41;;;;;;;32.95;15.15;;;5.60;60.40;;;;;;5113754;28;20522;-75
2022/12/15 09:43:12;;;;;;;27.35;13.77;;;5.50;58.90;;;;;;5113416;28;20016;-75
2022/12/15 09:45:43;;;;;;;32.08;14.55;;;5.40;59.30;;;;;;5114449;28;20022;-75
2022/12/15 09:48:14;;;;;;;30.27;14.30;;;5.00;58.90;;;;;;5114539;28;20024;-75
2022/12/15 09:50:43;;;;;;;31.30;13.55;;;4.70;60.10;;;;;;5114447;28;20039;-75
2022/12/15 09:53:13;;;;;;;19.50;8.85;;;4.30;59.90;;;;;;5113204;28;20114;-75
2022/12/15 09:55:38;;;;;;;20.55;10.52;;;4.00;61.50;;;;;;5114066;28;20032;-75
2022/12/15 09:58:30;;;;;;;18.30;9.10;;;4.00;61.20;;;;;;5079638;28;20039;-75
2022/12/15 10:01:22;;;;;;;28.13;12.55;;;4.40;61.00;;;;;;5113245;28;20092;-74
2022/12/15 10:04:09;;;;;;;14.93;7.23;;;4.10;60.60;;;;;;5114209;28;20034;-74
2022/12/15 10:06:49;;;;;;;26.63;11.82;;;3.70;61.80;;;;;;5114099;28;20300;-75
2022/12/15 10:09:29;;;;;;;24.95;12.65;;;3.80;63.20;;;;;;5113992;28;20016;-75
2022/12/15 10:12:11;;;;;;;27.38;12.07;;;3.60;63.60;;;;;;5113990;28;20027;-75
2022/12/15 10:14:37;;;;;;;25.40;12.88;;;3.60;64.40;;;;;;5113948;28;20035;-74
2022/12/15 10:17:17;;;;;;;16.60;9.43;;;4.00;64.40;;;;;;5113874;28;20032;-74
2022/12/15 10:20:18;;;;;;;30.83;15.00;;;4.10;62.20;;;;;;5114031;28;20028;-75
2022/12/15 10:22:44;;;;;;;26.45;13.48;;;4.50;61.70;;;;;;5070540;28;20447;-75
2022/12/15 10:25:12;;;;;;;27.90;14.77;;;4.90;62.00;;;;;;5113702;28;20024;-75
2022/12/15 10:28:15;;;;;;;30.38;14.63;;;5.40;60.90;;;;;;5113712;28;20028;-75
2022/12/15 10:30:54;;;;;;;28.40;13.95;;;6.10;59.40;;;;;;5113831;28;20030;-74
2022/12/15 10:33:23;;;;;;;27.38;13.60;;;6.40;57.70;;;;;;5113733;28;20024;-75
2022/12/15 10:35:52;;;;;;;27.42;13.95;;;6.00;57.50;;;;;;5113640;28;20024;-75
2022/12/15 10:38:36;;;;;;;31.08;14.88;;;5.40;59.00;;;;;;5112546;28;20025;-74
2022/12/15 10:41:06;;;;;;;18.98;8.50;;;4.80;60.30;;;;;;5113669;28;20052;-74
2022/12/15 10:43:34;;;;;;;29.73;13.05;;;3.90;61.80;;;;;;5113443;28;20028;-74
2022/12/15 10:46:12;;;;;;;13.95;7.10;;;3.40;64.50;;;;;;5113505;28;20485;-74
2022/12/15 10:48:39;;;;;;;27.27;14.10;;;3.20;65.60;;;;;;5113555;28;20107;-74
2022/12/15 10:51:39;;;;;;;18.85;8.32;;;2.90;66.50;;;;;;5113463;28;20020;-74
2022/12/15 10:54:11;;;;;;;12.85;7.28;;;2.60;67.40;;;;;;5098931;28;20059;-75
2022/12/15 10:56:52;;;;;;;11.35;6.63;;;2.20;69.20;;;;;;5112223;28;20077;-75
2022/12/15 10:59:33;;;;;;;23.45;9.48;;;2.00;70.50;;;;;;5113457;28;20056;-75
2022/12/15 11:02:20;;;;;;;17.13;7.75;;;1.90;71.00;;;;;;5113424;28;20028;-75
2022/12/15 11:04:57;;;;;;;8.93;5.45;;;1.70;71.90;;;;;;5113415;28;20057;-74
2022/12/15 11:07:29;;;;;;;16.67;8.60;;;1.60;72.60;;;;;;5113322;28;20038;-74
2022/12/15 11:10:00;;;;;;;27.48;11.73;;;1.40;73.70;;;;;;5112453;28;20020;-74
2022/12/15 11:15:20;;;;;;;15.65;7.68;;;1.30;75.90;;;;;;5116852;28;20059;-74
2022/12/15 11:17:56;;;;;;;18.60;9.60;;;1.30;75.60;;;;;;5117274;28;20020;-75
2022/12/15 11:20:29;;;;;;;23.92;10.52;;;1.30;77.20;;;;;;5117220;28;20020;-75
2022/12/15 11:22:59;;;;;;;15.40;6.22;;;1.40;76.40;;;;;;5117278;28;20050;-74
2022/12/15 11:25:39;;;;;;;20.45;9.10;;;1.40;76.40;;;;;;5116161;28;20028;-74
2022/12/15 11:28:18;;;;;;;10.95;6.18;;;1.30;76.60;;;;;;5116080;28;20087;-75
2022/12/15 11:30:55;;;;;;;17.83;8.60;;;1.40;77.50;;;;;;5117081;28;20069;-75
2022/12/15 11:33:20;;;;;;;20.73;11.02;;;1.30;76.00;;;;;;5117062;28;20047;-75
2022/12/15 11:36:08;;;;;;;19.50;10.35;;;1.30;77.20;;;;;;5116909;28;20028;-76
2022/12/15 11:38:37;;;;;;;21.02;10.45;;;1.30;77.40;;;;;;5116943;28;20038;-75
2022/12/15 11:41:51;;;;;;;12.15;7.50;;;1.40;77.30;;;;;;5116911;28;20024;-74
2022/12/15 11:44:26;;;;;;;23.17;11.30;;;1.50;76.90;;;;;;5109486;28;20036;-74
2022/12/15 11:46:58;;;;;;;26.45;11.77;;;1.50;77.00;;;;;;5116763;28;20086;-74
2022/12/15 11:49:32;;;;;;;;;;;1.60;76.50;;;;;;5117097;28;20024;-74
2022/12/15 11:52:25;;;;;;;15.85;8.18;;;1.60;76.60;;;;;;5116813;28;19911;-73
2022/12/15 11:54:58;;;;;;;;;;;1.70;76.40;;;;;;5117151;28;20080;-74
2022/12/15 11:58:02;;;;;;;27.60;10.00;;;1.60;75.90;;;;;;5115211;28;19923;-75
2022/12/15 12:00:34;;;;;;;12.60;6.72;;;1.70;76.50;;;;;;5116611;28;20035;-75
2022/12/15 12:03:32;;;;;;;25.63;11.95;;;1.70;76.40;;;;;;5116377;28;20016;-74
2022/12/15 12:06:13;;;;;;;32.42;12.50;;;1.90;76.90;;;;;;5115635;28;20020;-73
2022/12/15 12:09:02;;;;;;;8.85;6.03;;;2.00;76.60;;;;;;5116438;28;20030;-74
2022/12/15 12:11:39;;;;;;;15.00;7.57;;;2.00;75.70;;;;;;5116497;28;20027;-75
2022/12/15 12:14:23;;;;;;;29.13;12.73;;;2.10;75.40;;;;;;5116245;28;20049;-75
2022/12/15 12:17:16;;;;;;;27.23;12.18;;;2.20;75.40;;;;;;5116276;28;20032;-75
2022/12/15 12:19:50;;;;;;;26.95;12.55;;;2.30;75.10;;;;;;5116151;28;20031;-75
2022/12/15 12:22:31;;;;;;;17.20;9.10;;;2.40;74.40;;;;;;5116225;28;20016;-75
2022/12/15 12:25:01;;;;;;;28.88;13.82;;;2.40;74.50;;;;;;5116090;28;20105;-75
2022/12/15 12:27:48;;;;;;;16.10;8.15;;;2.70;74.60;;;;;;5116096;28;20055;-75
2022/12/15 12:30:20;;;;;;;35.25;15.77;;;3.50;73.30;;;;;;5115916;28;20028;-75
2022/12/15 12:32:51;;;;;;;39.35;17.00;;;4.50;70.40;;;;;;5115874;28;20024;-75
2022/12/15 12:35:41;;;;;;;33.08;17.67;;;5.30;67.70;;;;;;5114828;28;20031;-75
2022/12/15 12:38:10;;;;;;;36.70;18.10;;;5.90;65.20;;;;;;5115784;28;20028;-76
2022/12/15 12:40:39;;;;;;;35.88;18.33;;;5.70;65.90;;;;;;5115686;28;20021;-76
2022/12/15 12:43:09;;;;;;;35.50;17.88;;;5.20;64.80;;;;;;5114515;28;20028;-76
2022/12/15 12:46:07;;;;;;;32.38;15.70;;;4.80;65.80;;;;;;5115743;28;20020;-76
2022/12/15 12:48:37;;;;;;;38.60;17.23;;;4.50;67.20;;;;;;5101111;28;20057;-76
2022/12/15 12:51:18;;;;;;;31.08;16.10;;;4.30;67.90;;;;;;5115514;28;20020;-75
2022/12/15 12:53:43;;;;;;;27.52;14.07;;;4.00;68.30;;;;;;5115411;28;20054;-76
2022/12/15 12:56:28;;;;;;;26.02;13.20;;;3.80;68.90;;;;;;5097484;28;20095;-75
2022/12/15 12:58:54;;;;;;;30.73;13.90;;;3.70;70.00;;;;;;5114379;28;20038;-75
2022/12/15 13:01:32;;;;;;;20.27;9.68;;;3.60;70.60;;;;;;5115276;28;20028;-76
2022/12/15 13:04:12;;;;;;;29.63;14.50;;;3.60;71.60;;;;;;5115177;28;20024;-75
2022/12/15 13:06:37;;;;;;;36.60;14.10;;;3.50;71.90;;;;;;5115247;28;20020;-75
2022/12/15 13:09:15;;;;;;;25.05;12.05;;;3.40;71.60;;;;;;5115018;28;20024;-76
2022/12/15 13:11:56;;;;;;;36.15;15.68;;;3.30;71.50;;;;;;5115004;28;20028;-76
2022/12/15 13:14:32;;;;;;;26.85;12.88;;;3.30;71.60;;;;;;5114121;28;20050;-75
2022/12/15 13:17:15;;;;;;;30.77;15.40;;;3.30;71.00;;;;;;5115175;28;20020;-75
2022/12/15 13:19:59;;;;;;;19.20;9.48;;;3.20;71.70;;;;;;5114985;28;20043;-76
2022/12/15 13:22:34;;;;;;;18.20;8.60;;;3.20;71.80;;;;;;5114984;28;20028;-76
2022/12/15 13:25:20;;;;;;;25.88;12.30;;;3.20;72.00;;;;;;5114877;28;20028;-75
2022/12/15 13:27:50;;;;;;;26.83;13.23;;;3.20;72.10;;;;;;5114056;28;20020;-76
2022/12/15 13:30:16;;;;;;;17.70;9.38;;;3.20;73.00;;;;;;5114754;28;20036;-76
2022/12/15 13:32:50;;;;;;;26.80;13.73;;;3.20;72.40;;;;;;5114643;28;20028;-76
2022/12/15 13:35:28;;;;;;;31.92;15.40;;;3.30;72.70;;;;;;5114605;28;20072;-75
2022/12/15 13:38:01;;;;;;;29.02;14.10;;;3.40;72.80;;;;;;5114157;28;20027;-75
2022/12/15 13:40:36;;;;;;;30.00;13.95;;;3.30;72.00;;;;;;5114695;28;20048;-75
2022/12/15 13:43:05;;;;;;;22.02;10.38;;;3.30;72.60;;;;;;5114451;28;20044;-75
2022/12/15 13:45:53;;;;;;;22.17;10.75;;;3.20;72.70;;;;;;5114418;28;20043;-76
2022/12/15 13:48:43;;;;;;;33.53;13.38;;;3.20;72.30;;;;;;5114436;28;20028;-75
2022/12/15 13:51:15;;;;;;;27.52;12.98;;;3.10;72.10;;;;;;5114260;28;20076;-75
2022/12/15 13:53:49;;;;;;;23.35;11.95;;;3.10;72.40;;;;;;5113400;28;20024;-75
2022/12/15 13:56:28;;;;;;;19.98;8.63;;;3.10;72.70;;;;;;5114185;28;20028;-75
2022/12/15 13:58:59;;;;;;;27.25;11.02;;;3.10;73.20;;;;;;5113280;28;20032;-75
2022/12/15 14:01:28;;;;;;;28.40;12.52;;;3.00;72.10;;;;;;5114227;28;20072;-75
2022/12/15 14:04:05;;;;;;;28.40;13.30;;;2.90;72.10;;;;;;5114037;28;20024;-75
2022/12/15 14:06:44;;;;;;;25.75;12.70;;;3.00;72.70;;;;;;5114092;28;20024;-75
2022/12/15 14:09:14;;;;;;;22.45;10.85;;;2.90;72.80;;;;;;5114010;28;20024;-75
2022/12/15 14:11:42;;;;;;;20.30;10.10;;;2.90;73.20;;;;;;5114165;28;20012;-75
2022/12/15 14:14:21;;;;;;;24.58;11.32;;;2.90;73.60;;;;;;5113978;28;20020;-75
2022/12/15 14:16:52;;;;;;;22.80;10.07;;;2.80;73.90;;;;;;5113989;28;20079;-75
2022/12/15 14:19:18;;;;;;;26.98;13.05;;;2.80;73.70;;;;;;5113946;28;20077;-75
2022/12/15 14:21:56;;;;;;;29.35;13.25;;;2.80;73.90;;;;;;5112815;28;20031;-75
2022/12/15 14:24:31;;;;;;;29.75;12.85;;;2.80;74.00;;;;;;5113821;28;20378;-75
2022/12/15 14:26:57;;;;;;;24.70;13.00;;;2.90;73.80;;;;;;5113844;28;20019;-75
2022/12/15 14:29:23;;;;;;;26.88;13.60;;;2.90;73.50;;;;;;5113712;28;20032;-75
2022/12/15 14:31:58;;;;;;;28.60;13.05;;;2.90;73.60;;;;;;5113856;28;20107;-75
2022/12/15 14:34:40;;;;;;;27.60;12.70;;;2.90;73.40;;;;;;5113727;28;20511;-75
2022/12/15 14:37:14;;;;;;;29.83;13.70;;;2.90;73.00;;;;;;5112589;28;20032;-76
2022/12/15 14:39:44;;;;;;;24.90;13.02;;;2.80;72.90;;;;;;5113810;28;20048;-76
2022/12/15 14:42:27;;;;;;;32.67;14.32;;;2.70;73.20;;;;;;5113682;28;20043;-76
2022/12/15 14:44:53;;;;;;;26.35;11.73;;;2.70;73.50;;;;;;5113530;28;20039;-76
2022/12/15 14:47:27;;;;;;;27.15;12.68;;;2.70;73.00;;;;;;5113552;28;20040;-75
2022/12/15 14:49:55;;;;;;;25.80;12.23;;;2.70;72.70;;;;;;5112914;28;20101;-75
2022/12/15 14:52:35;;;;;;;29.30;14.05;;;2.70;72.80;;;;;;5113502;28;20020;-76
2022/12/15 14:55:23;;;;;;;28.73;14.45;;;2.70;72.90;;;;;;5113520;28;20021;-75
2022/12/15 14:57:51;;;;;;;28.90;13.32;;;2.80;73.10;;;;;;5094723;28;20032;-75
2022/12/15 15:00:30;;;;;;;25.77;13.63;;;2.80;73.00;;;;;;5113441;28;20102;-75
2022/12/15 15:03:14;;;;;;;26.42;12.70;;;2.70;73.00;;;;;;5113445;28;20024;-75
2022/12/15 15:05:42;;;;;;;29.20;12.98;;;2.70;73.20;;;;;;5112358;28;20020;-75
2022/12/15 15:08:24;;;;;;;27.70;12.75;;;2.60;73.10;;;;;;5113286;28;20017;-75
2022/12/15 15:10:51;;;;;;;25.90;13.00;;;2.50;73.00;;;;;;5113407;28;20032;-75
2022/12/15 15:13:19;;;;;;;28.02;12.57;;;2.40;73.30;;;;;;5113328;28;20043;-75
2022/12/15 15:16:00;;;;;;;28.67;13.50;;;2.40;73.50;;;;;;5112225;28;20026;-75
2022/12/15 15:18:27;;;;;;;25.67;12.73;;;2.20;73.60;;;;;;5113312;28;20050;-75
2022/12/15 15:21:03;;;;;;;28.98;12.18;;;2.10;74.00;;;;;;5113254;28;20032;-75
2022/12/15 15:23:30;;;;;;;22.25;11.15;;;2.10;74.20;;;;;;5113258;28;20032;-75